Time;durP1;ratioP1;P1;durP2;ratioP2;P2;SDS_P1;SDS_P2;PMS_P1;PMS_P2;Temp;Humidity;BMP_temperature;BMP_pressure;BME280_temperature;BME280_humidity;BME280_pressure;Samples;Min_cycle;Max_cycle;Signal;HPM_P1;HPM_P2
2022/12/01 00:02:21;;;;;;;24.30;15.70;;;;;;;-1.19;100.00;97563.81;105376;1296;25215;-76
2022/12/01 00:04:52;;;;;;;24.60;15.50;;;;;;;-1.19;100.00;97565.66;105393;1305;22497;-76
2022/12/01 00:07:23;;;;;;;22.60;16.10;;;;;;;-1.18;100.00;97567.70;105539;1304;22615;-76
2022/12/01 00:12:43;;;;;;;21.60;15.00;;;;;;;-1.16;100.00;97570.21;105348;1302;25137;-76
2022/12/01 00:15:15;;;;;;;24.50;16.00;;;;;;;-1.16;100.00;97569.49;105407;1296;22465;-76
2022/12/01 00:17:46;;;;;;;25.10;16.20;;;;;;;-1.16;100.00;97570.54;105402;1305;25282;-76
2022/12/01 00:20:18;;;;;;;23.70;16.20;;;;;;;-1.16;100.00;97567.61;105349;1301;23264;-76
2022/12/01 00:22:50;;;;;;;25.20;16.20;;;;;;;-1.16;100.00;97565.23;105356;1304;22529;-76
2022/12/01 00:25:24;;;;;;;24.90;16.40;;;;;;;-1.17;100.00;97565.60;105345;1302;24258;-76
2022/12/01 00:27:56;;;;;;;25.80;15.90;;;;;;;-1.17;100.00;97572.20;105359;1290;22450;-76
2022/12/01 00:30:27;;;;;;;27.90;19.20;;;;;;;-1.16;100.00;97571.97;105345;1305;22505;-76
2022/12/01 00:32:58;;;;;;;34.60;21.90;;;;;;;-1.15;100.00;97574.98;105359;1306;22570;-76
2022/12/01 00:35:29;;;;;;;26.90;18.30;;;;;;;-1.14;100.00;97578.28;105323;1305;25371;-76
2022/12/01 00:38:00;;;;;;;25.40;17.40;;;;;;;-1.14;100.00;97578.28;105446;1294;24348;-76
2022/12/01 00:40:31;;;;;;;26.90;16.60;;;;;;;-1.13;100.00;97582.30;105311;1284;22465;-76
2022/12/01 00:43:03;;;;;;;23.70;17.20;;;;;;;-1.13;100.00;97575.80;105394;1304;22462;-76
2022/12/01 00:45:36;;;;;;;24.90;16.10;;;;;;;-1.12;100.00;97572.03;105368;1305;22492;-76
2022/12/01 00:48:07;;;;;;;23.00;14.00;;;;;;;-1.11;100.00;97567.09;105328;1298;23808;-76
2022/12/01 00:50:41;;;;;;;20.80;14.00;;;;;;;-1.12;100.00;97572.00;105312;1294;22497;-76
2022/12/01 00:53:12;;;;;;;25.10;17.50;;;;;;;-1.12;100.00;97576.71;105421;1304;24404;-76
2022/12/01 00:55:44;;;;;;;26.80;17.20;;;;;;;-1.14;100.00;97571.52;105535;1303;22872;-76
2022/12/01 00:58:15;;;;;;;25.80;17.50;;;;;;;-1.14;100.00;97569.55;105397;1287;22476;-76
2022/12/01 01:00:46;;;;;;;23.40;15.50;;;;;;;-1.14;100.00;97563.55;105347;1304;24260;-76
2022/12/01 01:03:19;;;;;;;23.90;16.50;;;;;;;-1.14;100.00;97557.63;105370;1305;25211;-77
2022/12/01 01:05:50;;;;;;;23.40;15.70;;;;;;;-1.13;100.00;97554.89;105352;1298;22481;-77
2022/12/01 01:08:21;;;;;;;26.90;16.90;;;;;;;-1.11;100.00;97548.83;105365;1290;22469;-76
2022/12/01 01:10:52;;;;;;;25.20;18.00;;;;;;;-1.10;100.00;97546.13;105316;1296;22609;-76
2022/12/01 01:13:24;;;;;;;26.10;17.00;;;;;;;-1.09;100.00;97543.21;105381;1302;22455;-76
2022/12/01 01:16:04;;;;;;;22.00;15.60;;;;;;;-1.07;100.00;97548.56;105363;1292;22480;-76
2022/12/01 01:18:36;;;;;;;25.80;16.20;;;;;;;-1.07;100.00;97544.00;105371;1304;24263;-76
2022/12/01 01:21:11;;;;;;;26.10;17.90;;;;;;;-1.08;100.00;97547.03;105335;1297;23985;-76
2022/12/01 01:23:46;;;;;;;25.20;16.50;;;;;;;-1.09;100.00;97543.66;105318;1299;22992;-77
2022/12/01 01:26:19;;;;;;;27.30;17.40;;;;;;;-1.10;100.00;97540.48;105361;1305;22525;-76
2022/12/01 01:28:51;;;;;;;24.50;16.30;;;;;;;-1.10;100.00;97547.61;105307;1304;26121;-76
2022/12/01 01:31:24;;;;;;;24.40;16.20;;;;;;;-1.10;100.00;97547.25;105386;1282;24257;-76
2022/12/01 01:33:58;;;;;;;25.20;17.30;;;;;;;-1.09;100.00;97540.94;105333;1283;22486;-76
2022/12/01 01:36:29;;;;;;;23.70;16.50;;;;;;;-1.09;100.00;97543.53;105363;1304;23256;-76
2022/12/01 01:39:00;;;;;;;23.70;15.40;;;;;;;-1.09;100.00;97541.50;105445;1304;22471;-76
2022/12/01 01:41:31;;;;;;;23.20;16.70;;;;;;;-1.09;100.00;97534.92;105430;1294;24351;-76
2022/12/01 01:44:04;;;;;;;26.60;18.00;;;;;;;-1.10;100.00;97537.20;105378;1305;24388;-76
2022/12/01 01:46:37;;;;;;;27.30;19.00;;;;;;;-1.08;100.00;97538.18;105451;1304;22744;-76
2022/12/01 01:49:11;;;;;;;28.70;18.60;;;;;;;-1.07;100.00;97542.63;105307;1287;22468;-76
2022/12/01 01:51:49;;;;;;;25.20;16.80;;;;;;;-1.10;100.00;97538.05;104591;1305;1076609;-76
2022/12/01 01:54:24;;;;;;;20.30;13.50;;;;;;;-1.10;100.00;97537.98;105367;1295;25370;-76
2022/12/01 01:56:57;;;;;;;26.30;15.70;;;;;;;-1.11;100.00;97542.42;105390;1305;22660;-76
2022/12/01 01:59:34;;;;;;;21.60;14.40;;;;;;;-1.13;100.00;97540.51;105294;1305;23195;-76
2022/12/01 02:02:07;;;;;;;24.00;16.50;;;;;;;-1.13;100.00;97539.17;105386;1305;22525;-76
2022/12/01 02:04:41;;;;;;;24.80;16.80;;;;;;;-1.13;100.00;97533.81;105389;1296;22539;-76
2022/12/01 02:07:15;;;;;;;22.30;15.50;;;;;;;-1.12;100.00;97536.73;105336;1304;23837;-76
2022/12/01 02:09:47;;;;;;;24.50;17.10;;;;;;;-1.10;100.00;97540.60;105330;1281;25396;-76
2022/12/01 02:12:37;;;;;;;23.30;15.60;;;;;;;-1.10;100.00;97539.84;105346;1304;25910;-76
2022/12/01 02:15:29;;;;;;;23.80;15.60;;;;;;;-1.08;100.00;97541.22;105350;1305;22535;-77
2022/12/01 02:18:16;;;;;;;22.10;14.10;;;;;;;-1.10;100.00;97536.73;105332;1305;22834;-76
2022/12/01 02:21:14;;;;;;;24.20;16.10;;;;;;;-1.10;100.00;97536.77;105292;1296;25186;-76
2022/12/01 02:24:19;;;;;;;18.20;10.10;;;;;;;-1.11;100.00;97541.02;105314;1287;22509;-77
2022/12/01 02:26:57;;;;;;;22.00;14.40;;;;;;;-1.12;100.00;97542.35;105357;1285;24235;-76
2022/12/01 02:29:56;;;;;;;25.00;16.90;;;;;;;-1.14;100.00;97539.38;105349;1304;22490;-77
2022/12/01 02:32:34;;;;;;;22.10;15.50;;;;;;;-1.13;100.00;97538.76;105417;1287;24271;-77
2022/12/01 02:35:15;;;;;;;23.80;14.60;;;;;;;-1.12;100.00;97534.01;105388;1287;22491;-76
2022/12/01 02:37:53;;;;;;;23.80;16.70;;;;;;;-1.12;100.00;97530.86;105337;1295;24960;-77
2022/12/01 02:40:29;;;;;;;23.50;16.10;;;;;;;-1.10;100.00;97523.74;105302;1287;23603;-76
2022/12/01 02:43:06;;;;;;;24.20;14.70;;;;;;;-1.09;100.00;97523.08;105334;1304;22521;-76
2022/12/01 02:45:44;;;;;;;22.40;14.70;;;;;;;-1.10;100.00;97515.34;105347;1283;22599;-76
2022/12/01 02:48:21;;;;;;;23.20;15.20;;;;;;;-1.10;100.00;97520.43;105433;1295;22451;-76
2022/12/01 02:50:55;;;;;;;22.60;14.70;;;;;;;-1.10;100.00;97521.79;105316;1293;22490;-76
2022/12/01 02:53:27;;;;;;;22.30;14.60;;;;;;;-1.11;100.00;97517.59;105405;1302;25288;-77
2022/12/01 02:56:00;;;;;;;21.40;14.50;;;;;;;-1.10;100.00;97517.30;105362;1304;22844;-76
2022/12/01 02:58:32;;;;;;;22.30;13.70;;;;;;;-1.08;100.00;97520.85;105364;1303;22464;-76
2022/12/01 03:01:29;;;;;;;19.60;13.60;;;;;;;-1.08;100.00;97519.05;105386;1302;22945;-76
2022/12/01 03:04:20;;;;;;;22.10;14.40;;;;;;;-1.06;100.00;97512.70;105363;1291;22732;-76
2022/12/01 03:07:03;;;;;;;22.90;14.40;;;;;;;-1.04;100.00;97509.67;105408;1305;22473;-76
2022/12/01 03:09:45;;;;;;;19.40;13.30;;;;;;;-1.04;100.00;97508.40;105331;1281;24248;-76
2022/12/01 03:12:29;;;;;;;19.20;12.80;;;;;;;-1.02;100.00;97505.86;105377;1293;24401;-76
2022/12/01 03:15:09;;;;;;;17.50;13.10;;;;;;;-1.00;100.00;97508.27;105344;1305;22506;-76
2022/12/01 03:17:45;;;;;;;21.00;14.20;;;;;;;-1.00;100.00;97504.72;105372;1305;22479;-76
2022/12/01 03:20:24;;;;;;;16.30;12.10;;;;;;;-0.99;100.00;97506.38;105296;1304;22548;-76
2022/12/01 03:23:01;;;;;;;18.70;12.30;;;;;;;-0.98;100.00;97507.20;105370;1297;25384;-76
2022/12/01 03:25:37;;;;;;;21.30;14.60;;;;;;;-0.98;100.00;97500.08;105382;1304;22860;-76
2022/12/01 03:28:12;;;;;;;17.90;11.90;;;;;;;-0.98;100.00;97501.75;105355;1301;22527;-76
2022/12/01 03:30:45;;;;;;;19.70;12.90;;;;;;;-0.96;100.00;97501.22;105300;1293;22591;-77
2022/12/01 03:33:24;;;;;;;21.20;13.80;;;;;;;-0.97;100.00;97498.13;105382;1304;22562;-76
2022/12/01 03:36:01;;;;;;;18.80;13.40;;;;;;;-0.96;100.00;97497.85;105340;1305;22539;-76
2022/12/01 03:38:35;;;;;;;16.00;11.30;;;;;;;-0.95;100.00;97494.95;105403;1305;25275;-76
2022/12/01 03:41:12;;;;;;;17.30;12.60;;;;;;;-0.94;100.00;97491.03;105276;1305;22794;-76
2022/12/01 03:43:51;;;;;;;16.80;11.30;;;;;;;-0.92;100.00;97487.56;105338;1297;24232;-76
2022/12/01 03:46:29;;;;;;;18.80;13.00;;;;;;;-0.91;100.00;97485.36;105355;1293;22604;-76
2022/12/01 03:49:02;;;;;;;17.10;11.60;;;;;;;-0.90;100.00;97484.45;105310;1304;24307;-76
2022/12/01 03:51:43;;;;;;;17.70;11.90;;;;;;;-0.89;100.00;97480.41;105397;1304;22533;-77
2022/12/01 03:54:23;;;;;;;17.80;13.10;;;;;;;-0.88;100.00;97480.50;105514;1288;25361;-76
2022/12/01 03:57:01;;;;;;;17.00;12.20;;;;;;;-0.87;100.00;97482.11;105321;1305;22474;-76
2022/12/01 03:59:34;;;;;;;17.20;11.70;;;;;;;-0.87;100.00;97475.34;105455;1304;22482;-76
2022/12/01 04:02:07;;;;;;;14.90;10.70;;;;;;;-0.87;100.00;97474.39;105391;1305;22691;-76
2022/12/01 04:04:38;;;;;;;16.20;11.40;;;;;;;-0.86;100.00;97474.35;105367;1305;22512;-76
2022/12/01 04:07:13;;;;;;;17.50;11.60;;;;;;;-0.85;100.00;97470.44;105484;1297;25245;-76
2022/12/01 04:09:45;;;;;;;17.60;11.00;;;;;;;-0.85;100.00;97470.02;105386;1290;22478;-76
2022/12/01 04:12:32;;;;;;;16.00;10.70;;;;;;;-0.85;100.00;97469.81;105373;1295;25236;-76
2022/12/01 04:15:09;;;;;;;16.30;11.20;;;;;;;-0.84;100.00;97473.75;105507;1287;22477;-76
2022/12/01 04:17:42;;;;;;;15.00;9.90;;;;;;;-0.84;100.00;97469.92;105460;1304;22476;-76
2022/12/01 04:20:15;;;;;;;16.40;10.80;;;;;;;-0.83;100.00;97469.67;105316;1303;23604;-76
2022/12/01 04:22:46;;;;;;;17.10;11.20;;;;;;;-0.83;100.00;97472.29;105371;1304;23854;-76
2022/12/01 04:25:18;;;;;;;15.10;11.00;;;;;;;-0.82;100.00;97473.54;105357;1290;24486;-76
2022/12/01 04:27:49;;;;;;;15.90;11.40;;;;;;;-0.82;100.00;97472.50;105366;1296;22486;-76
2022/12/01 04:30:20;;;;;;;15.50;10.90;;;;;;;-0.81;100.00;97476.55;105319;1277;22493;-76
2022/12/01 04:32:53;;;;;;;17.00;11.00;;;;;;;-0.81;100.00;97482.40;105384;1296;22477;-76
2022/12/01 04:35:24;;;;;;;15.90;10.80;;;;;;;-0.82;100.00;97480.42;105340;1304;22715;-76
2022/12/01 04:37:56;;;;;;;16.00;11.00;;;;;;;-0.82;100.00;97480.78;105365;1304;25372;-76
2022/12/01 04:40:27;;;;;;;19.70;12.20;;;;;;;-0.82;100.00;97478.73;105285;1297;30897;-76
2022/12/01 04:42:59;;;;;;;16.90;12.40;;;;;;;-0.82;100.00;97482.86;105399;1304;22625;-76
2022/12/01 04:45:30;;;;;;;15.50;8.70;;;;;;;-0.81;100.00;97482.07;105378;1304;22508;-77
2022/12/01 04:48:01;;;;;;;18.80;11.70;;;;;;;-0.82;100.00;97481.75;105334;1304;22461;-77
2022/12/01 04:50:33;;;;;;;17.10;11.60;;;;;;;-0.82;100.00;97483.15;105310;1296;23094;-76
2022/12/01 04:53:05;;;;;;;17.80;12.00;;;;;;;-0.81;100.00;97487.28;105409;1305;22630;-77
2022/12/01 04:55:39;;;;;;;18.20;12.30;;;;;;;-0.82;100.00;97481.95;105404;1294;22792;-76
2022/12/01 04:58:11;;;;;;;14.90;10.50;;;;;;;-0.82;100.00;97479.42;105411;1304;22511;-76
2022/12/01 05:00:42;;;;;;;17.60;11.90;;;;;;;-0.82;100.00;97486.51;105455;1273;23752;-77
2022/12/01 05:03:15;;;;;;;16.90;10.90;;;;;;;-0.83;100.00;97489.27;105364;1296;25419;-77
2022/12/01 05:05:47;;;;;;;18.00;11.60;;;;;;;-0.84;100.00;97487.67;105354;1289;22682;-76
2022/12/01 05:08:19;;;;;;;18.20;12.00;;;;;;;-0.84;100.00;97490.93;105348;1290;23224;-76
2022/12/01 05:10:55;;;;;;;16.90;11.60;;;;;;;-0.84;100.00;97489.19;105349;1296;22488;-76
2022/12/01 05:13:26;;;;;;;17.80;12.00;;;;;;;-0.83;100.00;97490.70;105375;1297;23879;-77
2022/12/01 05:16:09;;;;;;;15.30;11.20;;;;;;;-0.83;100.00;97494.15;105373;1281;24212;-76
2022/12/01 05:18:43;;;;;;;15.70;9.50;;;;;;;-0.83;100.00;97493.23;105422;1305;22497;-77
2022/12/01 05:21:14;;;;;;;16.50;11.70;;;;;;;-0.83;100.00;97494.84;105443;1298;22840;-77
2022/12/01 05:23:45;;;;;;;16.30;11.30;;;;;;;-0.83;100.00;97491.70;105429;1305;22595;-76
2022/12/01 05:26:17;;;;;;;18.30;12.80;;;;;;;-0.83;100.00;97498.40;105337;1304;22516;-76
2022/12/01 05:28:48;;;;;;;17.40;12.00;;;;;;;-0.83;100.00;97501.56;105353;1304;22766;-77
2022/12/01 05:31:20;;;;;;;17.20;12.30;;;;;;;-0.83;100.00;97500.55;105363;1303;22675;-76
2022/12/01 05:33:51;;;;;;;17.20;11.50;;;;;;;-0.84;100.00;97502.16;105398;1281;22481;-77
2022/12/01 05:36:22;;;;;;;16.70;12.20;;;;;;;-0.84;100.00;97498.88;105339;1290;22520;-77
2022/12/01 05:38:54;;;;;;;19.10;12.80;;;;;;;-0.83;100.00;97501.96;105344;1281;23756;-76
2022/12/01 05:41:25;;;;;;;18.10;11.10;;;;;;;-0.83;100.00;97504.84;105449;1297;22639;-76
2022/12/01 05:43:56;;;;;;;17.00;11.60;;;;;;;-0.83;100.00;97506.73;105411;1287;22477;-76
2022/12/01 05:46:30;;;;;;;17.90;11.50;;;;;;;-0.82;100.00;97505.29;105327;1303;22703;-77
2022/12/01 05:49:01;;;;;;;18.60;11.60;;;;;;;-0.82;100.00;97507.21;105283;1304;22476;-76
2022/12/01 05:51:32;;;;;;;21.30;13.50;;;;;;;-0.82;100.00;97503.38;105349;1305;22530;-77
2022/12/01 05:54:03;;;;;;;19.90;14.70;;;;;;;-0.82;100.00;97503.33;105345;1302;25680;-76
2022/12/01 05:56:35;;;;;;;17.60;11.30;;;;;;;-0.82;100.00;97501.94;105370;1283;22466;-76
2022/12/01 05:59:06;;;;;;;19.90;13.20;;;;;;;-0.82;100.00;97502.33;105271;1304;22464;-76
2022/12/01 06:01:37;;;;;;;19.70;13.80;;;;;;;-0.82;100.00;97503.50;105395;1302;22510;-77
2022/12/01 06:04:09;;;;;;;19.50;13.30;;;;;;;-0.82;100.00;97505.89;105500;1296;24545;-77
2022/12/01 06:06:40;;;;;;;20.50;13.40;;;;;;;-0.82;100.00;97507.46;105507;1301;22521;-76
2022/12/01 06:09:11;;;;;;;16.40;12.60;;;;;;;-0.81;100.00;97508.06;105427;1297;22466;-76
2022/12/01 06:11:42;;;;;;;18.70;12.60;;;;;;;-0.81;100.00;97509.14;105372;1304;22709;-77
2022/12/01 06:14:16;;;;;;;14.30;9.60;;;;;;;-0.80;100.00;97510.00;105376;1297;22474;-77
2022/12/01 06:16:47;;;;;;;16.00;11.40;;;;;;;-0.79;100.00;97508.89;105330;1281;22494;-77
2022/12/01 06:19:19;;;;;;;16.80;10.90;;;;;;;-0.78;100.00;97506.52;105331;1304;22527;-77
2022/12/01 06:21:50;;;;;;;15.60;10.70;;;;;;;-0.76;100.00;97508.39;105359;1302;23955;-76
2022/12/01 06:24:21;;;;;;;14.30;11.00;;;;;;;-0.76;100.00;97510.75;105464;1304;22517;-77
2022/12/01 06:26:52;;;;;;;14.10;9.00;;;;;;;-0.75;100.00;97510.13;105416;1297;24266;-76
2022/12/01 06:29:26;;;;;;;14.30;10.20;;;;;;;-0.74;100.00;97513.01;105342;1280;22485;-77
2022/12/01 06:31:57;;;;;;;17.40;12.30;;;;;;;-0.73;100.00;97516.47;105378;1287;22489;-76
2022/12/01 06:34:29;;;;;;;16.20;11.10;;;;;;;-0.74;100.00;97518.98;105409;1291;22563;-77
2022/12/01 06:37:00;;;;;;;17.60;11.40;;;;;;;-0.74;100.00;97515.34;105381;1305;22783;-76
2022/12/01 06:39:31;;;;;;;14.70;10.20;;;;;;;-0.76;100.00;97516.64;105372;1301;37837;-76
2022/12/01 06:42:03;;;;;;;14.60;10.20;;;;;;;-0.77;100.00;97515.52;105382;1304;22484;-76
2022/12/01 06:44:34;;;;;;;16.10;10.10;;;;;;;-0.77;100.00;97514.67;105380;1304;22499;-76
2022/12/01 06:47:06;;;;;;;17.30;12.50;;;;;;;-0.77;100.00;97517.31;105366;1305;22478;-76
2022/12/01 06:49:38;;;;;;;17.90;13.20;;;;;;;-0.78;100.00;97515.66;105340;1305;22613;-76
2022/12/01 06:52:10;;;;;;;17.80;12.00;;;;;;;-0.77;100.00;97516.98;105324;1305;22554;-75
2022/12/01 06:54:43;;;;;;;17.80;12.50;;;;;;;-0.77;100.00;97518.71;105362;1289;22528;-75
2022/12/01 06:57:14;;;;;;;17.50;12.80;;;;;;;-0.76;100.00;97516.04;105476;1304;22504;-75
2022/12/01 06:59:45;;;;;;;20.00;12.90;;;;;;;-0.76;100.00;97518.05;105333;1297;22510;-75
2022/12/01 07:02:17;;;;;;;18.20;11.70;;;;;;;-0.76;100.00;97514.96;105382;1276;22571;-76
2022/12/01 07:04:48;;;;;;;18.30;13.20;;;;;;;-0.76;100.00;97514.20;105407;1303;22484;-76
2022/12/01 07:07:20;;;;;;;17.60;12.80;;;;;;;-0.76;100.00;97514.00;105354;1290;22483;-76
2022/12/01 07:09:51;;;;;;;19.30;11.90;;;;;;;-0.73;100.00;97514.58;105350;1300;22573;-75
2022/12/01 07:12:22;;;;;;;17.00;10.80;;;;;;;-0.72;100.00;97514.63;105364;1303;23859;-76
2022/12/01 07:14:53;;;;;;;16.40;10.80;;;;;;;-0.73;100.00;97516.06;105389;1305;23520;-75
2022/12/01 07:17:24;;;;;;;16.70;11.90;;;;;;;-0.73;100.00;97515.23;105406;1281;22422;-75
2022/12/01 07:19:56;;;;;;;17.90;12.50;;;;;;;-0.73;100.00;97515.27;105448;1297;22616;-75
2022/12/01 07:22:27;;;;;;;19.50;13.00;;;;;;;-0.73;100.00;97513.70;105355;1304;22494;-75
2022/12/01 07:24:59;;;;;;;14.80;11.00;;;;;;;-0.72;100.00;97515.63;105388;1290;22517;-76
2022/12/01 07:27:32;;;;;;;15.10;10.90;;;;;;;-0.71;100.00;97517.09;105364;1291;22493;-75
2022/12/01 07:30:03;;;;;;;15.40;10.20;;;;;;;-0.70;100.00;97517.35;105309;1283;23218;-75
2022/12/01 07:32:35;;;;;;;17.60;10.10;;;;;;;-0.71;100.00;97520.31;105380;1281;24220;-76
2022/12/01 07:35:09;;;;;;;16.60;10.80;;;;;;;-0.70;100.00;97522.01;105369;1297;22489;-75
2022/12/01 07:37:40;;;;;;;18.40;12.40;;;;;;;-0.70;100.00;97521.29;105358;1297;22479;-76
2022/12/01 07:40:13;;;;;;;21.20;13.60;;;;;;;-0.69;100.00;97519.17;105361;1290;22458;-75
2022/12/01 07:42:45;;;;;;;17.40;12.50;;;;;;;-0.68;100.00;97518.46;105359;1305;23802;-75
2022/12/01 07:45:16;;;;;;;20.60;13.80;;;;;;;-0.67;100.00;97517.84;105354;1281;24351;-76
2022/12/01 07:47:52;;;;;;;23.50;15.50;;;;;;;-0.66;100.00;97517.75;105377;1305;25476;-75
2022/12/01 07:50:23;;;;;;;19.10;14.40;;;;;;;-0.66;100.00;97517.76;105330;1304;24434;-75
2022/12/01 07:52:54;;;;;;;15.90;12.30;;;;;;;-0.65;100.00;97517.69;105345;1284;22864;-75
2022/12/01 07:55:25;;;;;;;16.90;12.10;;;;;;;-0.63;100.00;97517.54;105385;1299;22490;-75
2022/12/01 07:58:00;;;;;;;15.10;11.40;;;;;;;-0.63;100.00;97516.66;105370;1295;22608;-76
2022/12/01 08:00:31;;;;;;;16.30;11.90;;;;;;;-0.63;100.00;97515.23;105410;1298;25221;-76
2022/12/01 08:03:03;;;;;;;16.00;10.90;;;;;;;-0.63;100.00;97522.00;105357;1281;22483;-75
2022/12/01 08:05:34;;;;;;;17.80;13.10;;;;;;;-0.62;100.00;97522.36;105353;1290;22592;-76
2022/12/01 08:08:06;;;;;;;16.20;11.90;;;;;;;-0.61;100.00;97520.52;105352;1303;22548;-75
2022/12/01 08:10:38;;;;;;;17.80;12.60;;;;;;;-0.61;100.00;97523.61;105372;1295;25344;-75
2022/12/01 08:13:09;;;;;;;15.90;12.30;;;;;;;-0.61;100.00;97525.18;105385;1304;22502;-75
2022/12/01 08:15:40;;;;;;;15.70;11.20;;;;;;;-0.61;100.00;97523.16;105396;1297;24256;-76
2022/12/01 08:18:11;;;;;;;16.00;12.10;;;;;;;-0.60;100.00;97521.77;105479;1303;23018;-75
2022/12/01 08:20:42;;;;;;;15.90;11.90;;;;;;;-0.59;100.00;97520.50;105344;1288;22600;-76
2022/12/01 08:23:13;;;;;;;14.80;10.70;;;;;;;-0.57;100.00;97520.70;105391;1296;23968;-75
2022/12/01 08:25:47;;;;;;;13.70;10.60;;;;;;;-0.56;100.00;97518.48;105378;1300;22472;-76
2022/12/01 08:28:18;;;;;;;16.20;8.90;;;;;;;-0.54;100.00;97525.20;105379;1292;22510;-76
2022/12/01 08:30:50;;;;;;;15.50;11.40;;;;;;;-0.55;100.00;97522.19;105300;1290;24461;-75
2022/12/01 08:33:21;;;;;;;13.70;10.30;;;;;;;-0.53;100.00;97523.66;105388;1304;25395;-75
2022/12/01 08:35:52;;;;;;;13.70;9.90;;;;;;;-0.51;100.00;97525.23;105364;1281;23509;-76
2022/12/01 08:38:23;;;;;;;14.20;9.60;;;;;;;-0.50;100.00;97531.05;105420;1299;22457;-75
2022/12/01 08:40:55;;;;;;;14.80;10.40;;;;;;;-0.49;100.00;97531.98;105346;1297;22677;-76
2022/12/01 08:43:27;;;;;;;13.70;10.30;;;;;;;-0.50;100.00;97536.30;105375;1297;22454;-76
2022/12/01 08:46:00;;;;;;;13.80;9.70;;;;;;;-0.51;100.00;97532.41;105341;1297;22492;-75
2022/12/01 08:48:32;;;;;;;16.70;11.20;;;;;;;-0.50;100.00;97536.83;105339;1283;22461;-75
2022/12/01 08:51:09;;;;;;;14.70;10.70;;;;;;;-0.51;100.00;97534.98;105314;1305;22485;-75
2022/12/01 08:53:47;;;;;;;15.40;10.60;;;;;;;-0.50;100.00;97537.38;105351;1304;22642;-75
2022/12/01 08:56:21;;;;;;;14.20;11.40;;;;;;;-0.50;100.00;97536.42;105407;1291;22509;-75
2022/12/01 08:58:53;;;;;;;16.60;12.00;;;;;;;-0.49;100.00;97538.11;105307;1304;22472;-75
2022/12/01 09:01:25;;;;;;;16.50;11.80;;;;;;;-0.48;100.00;97535.44;105366;1296;22710;-75
2022/12/01 09:04:07;;;;;;;17.40;11.80;;;;;;;-0.44;100.00;97536.42;105381;1280;22475;-76
2022/12/01 09:06:41;;;;;;;16.70;12.20;;;;;;;-0.41;100.00;97532.55;105368;1304;22461;-75
2022/12/01 09:09:15;;;;;;;17.00;11.60;;;;;;;-0.41;100.00;97529.79;105415;1303;22460;-76
2022/12/01 09:11:51;;;;;;;15.50;11.60;;;;;;;-0.42;100.00;97532.27;105435;1298;22720;-75
2022/12/01 09:14:23;;;;;;;17.60;12.90;;;;;;;-0.41;100.00;97532.40;105490;1303;22450;-75
2022/12/01 09:16:54;;;;;;;16.00;11.30;;;;;;;-0.40;100.00;97527.76;105454;1290;22495;-75
2022/12/01 09:19:27;;;;;;;15.40;11.90;;;;;;;-0.40;100.00;97526.00;105447;1296;25780;-76
2022/12/01 09:21:59;;;;;;;15.60;10.80;;;;;;;-0.39;100.00;97525.84;105458;1304;25488;-75
2022/12/01 09:24:30;;;;;;;18.00;14.00;;;;;;;-0.40;100.00;97527.40;105381;1304;22524;-75
2022/12/01 09:27:02;;;;;;;17.70;13.10;;;;;;;-0.42;100.00;97527.16;105385;1304;24403;-76
2022/12/01 09:29:34;;;;;;;17.20;12.90;;;;;;;-0.42;100.00;97523.80;105355;1304;22525;-75
2022/12/01 09:32:05;;;;;;;15.00;11.80;;;;;;;-0.39;100.00;97522.80;105371;1304;22486;-76
2022/12/01 09:34:36;;;;;;;16.10;11.70;;;;;;;-0.38;100.00;97519.88;105345;1305;22509;-75
2022/12/01 09:37:08;;;;;;;16.40;11.50;;;;;;;-0.39;100.00;97520.31;105387;1281;22521;-75
2022/12/01 09:39:39;;;;;;;14.90;10.90;;;;;;;-0.41;100.00;97517.41;105366;1297;23684;-75
2022/12/01 09:42:17;;;;;;;16.20;12.00;;;;;;;-0.41;100.00;97521.78;105368;1296;22537;-75
2022/12/01 09:44:52;;;;;;;14.40;10.90;;;;;;;-0.40;100.00;97516.66;105397;1304;22833;-75
2022/12/01 09:47:28;;;;;;;15.30;11.70;;;;;;;-0.39;100.00;97518.42;105362;1303;23502;-75
2022/12/01 09:50:03;;;;;;;16.60;12.10;;;;;;;-0.37;100.00;97519.88;105351;1277;24290;-75
2022/12/01 09:52:42;;;;;;;15.40;12.00;;;;;;;-0.35;100.00;97518.77;105388;1300;23900;-75
2022/12/01 09:55:17;;;;;;;14.90;11.10;;;;;;;-0.33;100.00;97520.84;105394;1305;25367;-75
2022/12/01 09:57:53;;;;;;;15.50;12.30;;;;;;;-0.37;100.00;97520.12;105378;1305;22529;-75
2022/12/01 10:00:28;;;;;;;17.70;12.40;;;;;;;-0.40;100.00;97516.66;105326;1297;22473;-75
2022/12/01 10:03:14;;;;;;;18.70;13.60;;;;;;;-0.44;100.00;97520.21;105360;1304;22478;-75
2022/12/01 10:05:53;;;;;;;16.40;12.60;;;;;;;-0.43;100.00;97518.02;105416;1291;22471;-75
2022/12/01 10:08:29;;;;;;;18.30;13.10;;;;;;;-0.42;100.00;97517.63;105394;1299;22529;-75
2022/12/01 10:11:05;;;;;;;15.10;11.20;;;;;;;-0.41;100.00;97521.66;105403;1277;26158;-75
2022/12/01 10:13:37;;;;;;;15.00;11.30;;;;;;;-0.40;100.00;97513.73;105429;1304;25324;-75
2022/12/01 10:16:12;;;;;;;14.60;10.40;;;;;;;-0.41;100.00;97512.56;105409;1304;22969;-75
2022/12/01 10:18:55;;;;;;;15.20;10.80;;;;;;;-0.42;100.00;97508.39;105407;1304;22519;-75
2022/12/01 10:21:38;;;;;;;15.00;11.30;;;;;;;-0.43;100.00;97509.36;105431;1294;25322;-76
2022/12/01 10:24:25;;;;;;;16.50;11.80;;;;;;;-0.43;100.00;97508.45;105374;1297;24916;-75
2022/12/01 12:03:52;;;;;;;14.10;11.50;;;;;;;-0.39;100.00;97467.88;102357;1332;557352;-76
2022/12/01 12:06:27;;;;;;;13.60;11.10;;;;;;;-0.33;99.86;97472.14;103550;1302;1079372;-75
2022/12/01 12:09:10;;;;;;;15.30;11.70;;;;;;;-0.36;99.85;97473.80;104565;1313;22947;-75
2022/12/01 12:11:46;;;;;;;13.90;10.50;;;;;;;-0.38;99.95;97469.50;104921;1300;25334;-75
2022/12/01 12:14:29;;;;;;;14.70;11.20;;;;;;;-0.40;99.98;97468.85;104927;1306;22464;-75
2022/12/01 12:17:15;;;;;;;13.10;10.60;;;;;;;-0.39;100.00;97472.30;104957;1298;22480;-75
2022/12/01 12:20:06;;;;;;;15.20;11.80;;;;;;;-0.43;99.97;97474.74;104965;1289;27487;-75
2022/12/01 12:22:44;;;;;;;14.80;10.90;;;;;;;-0.48;99.86;97475.98;105018;1306;22475;-75
2022/12/01 12:25:29;;;;;;;16.10;11.20;;;;;;;-0.54;99.97;97475.65;105093;1300;22705;-75
2022/12/01 12:28:12;;;;;;;17.50;12.10;;;;;;;-0.60;99.98;97472.70;105173;1304;22462;-75
2022/12/01 12:30:46;;;;;;;15.70;10.80;;;;;;;-0.63;100.00;97476.69;105164;1296;24899;-75
2022/12/01 12:33:35;;;;;;;14.70;10.10;;;;;;;-0.67;100.00;97473.89;105131;1304;22469;-75
2022/12/01 12:36:15;;;;;;;17.60;12.20;;;;;;;-0.71;100.00;97471.43;105143;1298;32559;-75
2022/12/01 12:39:01;;;;;;;16.90;12.70;;;;;;;-0.73;100.00;97469.52;105159;1304;24253;-74
2022/12/01 12:41:37;;;;;;;16.20;11.70;;;;;;;-0.72;100.00;97465.48;105148;1291;22483;-75
2022/12/01 12:44:27;;;;;;;17.90;12.30;;;;;;;-0.74;100.00;97465.98;105062;1304;22525;-75
2022/12/01 12:47:07;;;;;;;17.80;11.90;;;;;;;-0.74;100.00;97462.98;105164;1306;22458;-75
2022/12/01 12:49:43;;;;;;;18.20;11.20;;;;;;;-0.76;100.00;97462.49;105443;1295;22496;-75
2022/12/01 12:52:15;;;;;;;16.70;12.20;;;;;;;-0.76;100.00;97465.49;105473;1286;22458;-75
2022/12/01 12:54:51;;;;;;;19.50;13.30;;;;;;;-0.78;100.00;97458.42;105405;1301;22490;-75
2022/12/01 12:57:25;;;;;;;19.40;14.00;;;;;;;-0.80;100.00;97457.14;105381;1301;22465;-75
2022/12/01 12:59:59;;;;;;;18.70;13.90;;;;;;;-0.80;100.00;97458.10;105382;1301;25203;-75
2022/12/01 13:02:34;;;;;;;18.90;14.10;;;;;;;-0.81;100.00;97457.09;105447;1301;22467;-75
2022/12/01 13:05:09;;;;;;;18.40;12.30;;;;;;;-0.82;100.00;97459.61;105387;1285;22502;-75
2022/12/01 13:07:45;;;;;;;19.50;13.40;;;;;;;-0.83;100.00;97457.35;105416;1300;22462;-75
2022/12/01 13:10:25;;;;;;;21.70;14.00;;;;;;;-0.84;100.00;97460.15;105474;1300;22458;-75
2022/12/01 13:12:59;;;;;;;21.70;16.50;;;;;;;-0.83;100.00;97463.71;105358;1303;22573;-75
2022/12/01 13:15:30;;;;;;;19.10;14.20;;;;;;;-0.81;100.00;97466.90;105411;1300;24279;-75